createdAt,value
2023-05-20T00:00:55.906Z,22.10
2023-05-20T00:03:23.947Z,26.50
2023-05-20T00:05:51.662Z,24.30
2023-05-20T00:08:19.501Z,35.00
2023-05-20T00:10:47.340Z,31.70
2023-05-20T00:13:14.951Z,27.10
2023-05-20T00:15:42.913Z,30.30
2023-05-20T00:18:10.548Z,35.90
2023-05-20T00:20:38.185Z,30.10
2023-05-20T00:23:05.797Z,24.10
2023-05-20T00:25:33.712Z,27.50
2023-05-20T00:28:01.576Z,22.90
2023-05-20T00:30:30.169Z,38.80
2023-05-20T00:32:57.790Z,35.00
2023-05-20T00:35:25.362Z,28.20
2023-05-20T00:37:53.089Z,25.80
2023-05-20T00:40:20.771Z,18.10
2023-05-20T00:42:48.387Z,25.70
2023-05-20T00:45:16.305Z,35.80
2023-05-20T00:47:44.385Z,26.80
2023-05-20T00:50:12.199Z,22.40
2023-05-20T00:52:40.648Z,25.30
2023-05-20T00:55:09.216Z,22.30
2023-05-20T00:57:36.953Z,19.30
2023-05-20T01:00:05.806Z,24.70
2023-05-20T01:02:36.654Z,37.40
2023-05-20T01:05:04.599Z,37.80
2023-05-20T01:07:32.949Z,36.70
2023-05-20T01:10:01.120Z,23.80
2023-05-20T01:12:37.264Z,23.50
2023-05-20T01:15:14.052Z,28.40
2023-05-20T01:17:47.116Z,23.70
2023-05-20T01:20:15.555Z,20.70
2023-05-20T01:22:50.250Z,22.20
2023-05-20T01:25:17.882Z,22.40
2023-05-20T01:27:45.896Z,23.80
2023-05-20T01:30:13.528Z,22.80
2023-05-20T01:32:50.800Z,21.10
2023-05-20T01:35:19.524Z,23.20
2023-05-20T01:37:48.301Z,20.60
2023-05-20T01:40:16.999Z,24.70
2023-05-20T01:42:45.212Z,24.00
2023-05-20T01:45:12.826Z,24.20
2023-05-20T01:47:40.473Z,21.90
2023-05-20T01:50:08.810Z,21.60
2023-05-20T01:52:36.471Z,23.60
2023-05-20T01:55:04.588Z,22.00
2023-05-20T01:57:32.249Z,27.60
2023-05-20T01:59:59.826Z,24.70
2023-05-20T02:02:27.731Z,21.90
2023-05-20T02:04:55.575Z,25.70
2023-05-20T02:07:23.178Z,21.90
2023-05-20T02:09:50.804Z,20.60
2023-05-20T02:12:18.406Z,25.90
2023-05-20T02:14:47.905Z,23.10
2023-05-20T02:17:22.272Z,23.30
2023-05-20T02:19:49.871Z,21.50
2023-05-20T02:22:17.505Z,21.80
2023-05-20T02:24:45.160Z,24.90
2023-05-20T02:27:12.759Z,22.70
2023-05-20T02:29:40.422Z,17.10
2023-05-20T02:32:07.986Z,19.80
2023-05-20T02:34:35.634Z,22.70
2023-05-20T02:37:03.401Z,23.40
2023-05-20T02:39:31.038Z,19.50
2023-05-20T02:41:58.664Z,20.70
2023-05-20T02:44:26.283Z,18.10
2023-05-20T02:46:53.957Z,18.80
2023-05-20T02:49:21.645Z,22.90
2023-05-20T02:51:49.353Z,18.50
2023-05-20T02:54:17.096Z,17.10
2023-05-20T02:56:44.676Z,20.00
2023-05-20T02:59:12.346Z,19.70
2023-05-20T03:01:39.927Z,20.20
2023-05-20T03:04:08.278Z,17.60
2023-05-20T03:06:35.920Z,18.00
2023-05-20T03:09:03.675Z,17.00
2023-05-20T03:11:31.291Z,16.10
2023-05-20T03:13:58.865Z,16.90
2023-05-20T03:16:26.556Z,17.40
2023-05-20T03:18:54.236Z,16.90
2023-05-20T03:21:21.824Z,12.70
2023-05-20T03:23:49.485Z,17.20
2023-05-20T03:26:17.184Z,16.60
2023-05-20T03:28:44.763Z,16.80
2023-05-20T03:31:12.448Z,15.80
2023-05-20T03:33:40.143Z,16.20
2023-05-20T03:36:07.794Z,15.30
2023-05-20T03:38:35.421Z,12.40
2023-05-20T03:41:03.037Z,13.10
2023-05-20T03:43:30.682Z,14.80
2023-05-20T03:45:58.563Z,12.10
2023-05-20T03:48:26.149Z,13.40
2023-05-20T03:50:55.207Z,17.70
2023-05-20T03:53:22.905Z,10.60
2023-05-20T03:55:50.533Z,13.50
2023-05-20T03:58:18.244Z,12.00
2023-05-20T04:00:45.843Z,10.10
2023-05-20T04:03:13.718Z,11.60
2023-05-20T04:05:41.448Z,12.90
2023-05-20T04:08:09.062Z,11.20
2023-05-20T04:10:36.678Z,14.10
2023-05-20T04:13:04.402Z,12.20
2023-05-20T04:15:35.484Z,11.40
2023-05-20T04:18:03.397Z,11.60
2023-05-20T04:20:31.387Z,14.80
2023-05-20T04:22:59.388Z,11.60
2023-05-20T04:25:26.987Z,11.80
2023-05-20T04:27:54.627Z,13.00
2023-05-20T04:30:22.457Z,10.80
2023-05-20T04:32:50.581Z,12.10
2023-05-20T04:35:20.318Z,10.80
2023-05-20T04:37:47.938Z,11.80
2023-05-20T04:40:16.038Z,11.10
2023-05-20T04:42:43.681Z,9.60
2023-05-20T04:45:11.949Z,9.40
2023-05-20T04:47:39.965Z,8.50
2023-05-20T04:50:09.327Z,10.20
2023-05-20T04:52:40.279Z,10.30
2023-05-20T04:55:09.560Z,10.10
2023-05-20T04:57:38.471Z,10.10
2023-05-20T05:00:06.734Z,8.50
2023-05-20T05:02:35.674Z,11.70
2023-05-20T05:05:04.019Z,11.10
2023-05-20T05:07:31.787Z,9.30
2023-05-20T05:09:59.389Z,9.00
2023-05-20T05:12:26.963Z,10.10
2023-05-20T05:14:54.664Z,10.00
2023-05-20T05:17:22.263Z,12.10
2023-05-20T05:19:49.990Z,9.90
2023-05-20T05:22:17.627Z,10.20
2023-05-20T05:24:45.220Z,12.20
2023-05-20T05:27:12.954Z,10.50
2023-05-20T05:29:40.573Z,12.00
2023-05-20T05:32:08.225Z,10.40
2023-05-20T05:34:35.912Z,10.20
2023-05-20T05:37:03.615Z,10.50
2023-05-20T05:39:31.224Z,9.20
2023-05-20T05:41:58.986Z,8.70
2023-05-20T05:44:26.595Z,7.90
2023-05-20T05:46:54.212Z,8.90
2023-05-20T05:49:21.890Z,8.00
2023-05-20T05:51:50.649Z,10.50
2023-05-20T05:54:18.219Z,9.20
2023-05-20T05:56:45.873Z,10.60
2023-05-20T05:59:13.512Z,8.90
2023-05-20T06:01:41.112Z,9.00
2023-05-20T06:04:08.862Z,9.80
2023-05-20T06:06:36.545Z,9.30
2023-05-20T06:09:04.143Z,9.70
2023-05-20T06:11:31.854Z,10.10
2023-05-20T06:13:59.532Z,9.80
2023-05-20T06:16:27.291Z,10.40
2023-05-20T06:18:54.942Z,11.20
2023-05-20T06:21:23.601Z,9.60
2023-05-20T06:23:51.202Z,9.50
2023-05-20T06:26:18.805Z,10.90
2023-05-20T06:28:46.368Z,12.00
2023-05-20T06:31:13.958Z,11.30
2023-05-20T06:33:41.605Z,9.70
2023-05-20T06:36:09.221Z,10.40
2023-05-20T06:38:36.839Z,9.10
2023-05-20T06:41:04.598Z,12.80
2023-05-20T06:43:32.938Z,10.00
2023-05-20T06:46:00.648Z,11.20
2023-05-20T06:48:28.471Z,10.50
2023-05-20T06:50:56.268Z,11.10
2023-05-20T06:53:23.848Z,13.20
2023-05-20T06:55:53.765Z,12.30
2023-05-20T06:58:21.468Z,11.70
2023-05-20T07:00:49.051Z,12.00
2023-05-20T07:03:16.682Z,11.70
2023-05-20T07:05:44.636Z,15.80
2023-05-20T07:08:12.307Z,13.10
2023-05-20T07:10:39.958Z,13.60
2023-05-20T07:13:07.708Z,12.40
2023-05-20T07:15:35.500Z,12.60
2023-05-20T07:18:03.451Z,12.00
2023-05-20T07:20:31.190Z,12.70
2023-05-20T07:22:58.778Z,13.10
2023-05-20T07:25:26.365Z,12.30
2023-05-20T07:27:53.972Z,12.90
2023-05-20T07:30:21.688Z,14.70
2023-05-20T07:32:49.314Z,14.60
2023-05-20T07:35:17.173Z,14.00
2023-05-20T07:37:45.273Z,13.60
2023-05-20T07:40:12.916Z,11.00
2023-05-20T07:42:40.514Z,11.50
2023-05-20T07:45:09.055Z,12.50
2023-05-20T07:47:36.967Z,14.40
2023-05-20T07:50:04.812Z,15.80
2023-05-20T07:52:41.069Z,13.90
2023-05-20T07:55:15.818Z,14.20
2023-05-20T07:57:44.880Z,13.70
2023-05-20T08:00:13.159Z,14.40
2023-05-20T08:02:40.896Z,12.30
2023-05-20T08:05:08.847Z,14.20
2023-05-20T08:07:36.483Z,14.40
2023-05-20T08:10:04.390Z,12.50
2023-05-20T08:12:32.014Z,13.00
2023-05-20T08:14:59.579Z,12.70
2023-05-20T08:17:27.355Z,12.40
2023-05-20T08:19:55.018Z,13.20
2023-05-20T08:22:22.608Z,11.80
2023-05-20T08:24:50.205Z,12.90
2023-05-20T08:27:17.900Z,13.10
2023-05-20T08:29:45.560Z,12.80
2023-05-20T08:32:13.201Z,14.20
2023-05-20T08:34:40.807Z,13.20
2023-05-20T08:37:08.443Z,12.60
2023-05-20T08:39:36.137Z,13.80
2023-05-20T08:42:03.835Z,12.40
2023-05-20T08:44:31.630Z,12.80
2023-05-20T08:46:59.514Z,14.30
2023-05-20T08:49:27.379Z,11.20
2023-05-20T08:51:55.969Z,13.90
2023-05-20T08:54:25.559Z,15.00
2023-05-20T08:56:53.181Z,15.50
2023-05-20T08:59:20.998Z,14.90
2023-05-20T09:01:48.683Z,11.90
2023-05-20T09:04:16.346Z,14.00
2023-05-20T09:06:47.434Z,12.70
2023-05-20T09:09:15.502Z,13.80
2023-05-20T09:11:43.481Z,10.50
2023-05-20T09:14:11.093Z,12.90
2023-05-20T09:16:40.516Z,11.80
2023-05-20T09:21:35.761Z,10.90
2023-05-20T09:24:03.451Z,13.50
2023-05-20T09:26:31.082Z,8.90
2023-05-20T09:28:59.708Z,10.30
2023-05-20T09:31:34.238Z,10.80
2023-05-20T09:34:02.796Z,10.40
2023-05-20T09:36:33.327Z,11.40
2023-05-20T09:39:03.657Z,10.90
2023-05-20T09:41:38.370Z,10.00
2023-05-20T09:44:06.169Z,11.80
2023-05-20T09:46:34.596Z,11.80
2023-05-20T09:49:03.423Z,11.20
2023-05-20T09:51:31.144Z,12.90
2023-05-20T09:53:59.401Z,10.70
2023-05-20T09:56:28.410Z,11.20
2023-05-20T09:58:58.676Z,10.50
2023-05-20T10:01:26.290Z,10.00
2023-05-20T10:03:54.046Z,11.20
2023-05-20T10:06:50.595Z,10.70
2023-05-20T10:09:49.002Z,10.50
2023-05-20T10:12:33.577Z,13.70
2023-05-20T10:15:20.025Z,12.20
2023-05-20T10:18:11.390Z,11.90
2023-05-20T10:20:49.553Z,13.00
2023-05-20T10:23:30.562Z,13.30
2023-05-20T10:25:59.024Z,12.40
2023-05-20T10:28:31.971Z,13.50
2023-05-20T10:31:00.220Z,12.30
2023-05-20T10:33:30.514Z,13.70
2023-05-20T10:35:59.433Z,15.10
2023-05-20T10:38:27.285Z,14.80
2023-05-20T10:40:54.890Z,16.60
2023-05-20T10:43:28.730Z,15.30
2023-05-20T10:45:57.635Z,13.80
2023-05-20T10:48:29.182Z,17.00
2023-05-20T10:51:02.618Z,17.40
2023-05-20T10:53:42.226Z,17.00
2023-05-20T10:56:25.345Z,16.70
2023-05-20T10:58:55.132Z,17.30
2023-05-20T11:01:27.659Z,14.30
2023-05-20T11:03:57.168Z,16.00
2023-05-20T11:06:28.591Z,15.80
2023-05-20T11:09:04.483Z,15.80
2023-05-20T11:11:35.445Z,16.20
2023-05-20T11:14:04.928Z,17.60
2023-05-20T11:16:32.620Z,16.70
2023-05-20T11:19:00.276Z,17.70
2023-05-20T11:21:27.930Z,16.50
2023-05-20T11:23:55.560Z,15.50
2023-05-20T11:26:23.168Z,15.90
2023-05-20T11:28:50.863Z,16.50
2023-05-20T11:31:18.906Z,14.50
2023-05-20T11:33:46.514Z,16.00
2023-05-20T11:36:27.030Z,13.90
2023-05-20T11:39:00.179Z,14.40
2023-05-20T11:41:28.786Z,14.00
2023-05-20T11:44:00.957Z,13.90
2023-05-20T11:46:28.909Z,13.80
2023-05-20T11:48:57.831Z,13.90
2023-05-20T11:51:29.579Z,13.90
2023-05-20T11:54:04.867Z,13.10
2023-05-20T11:56:39.998Z,14.50
2023-05-20T11:59:09.944Z,13.30
2023-05-20T12:01:40.074Z,13.60
2023-05-20T12:04:08.836Z,14.10
2023-05-20T12:06:36.960Z,13.40
2023-05-20T12:09:06.277Z,13.30
2023-05-20T12:11:37.902Z,11.90
2023-05-20T12:14:05.543Z,12.60
2023-05-20T12:16:34.486Z,14.40
2023-05-20T12:19:02.497Z,12.20
2023-05-20T12:21:30.663Z,11.00
2023-05-20T12:24:01.497Z,10.70
2023-05-20T12:26:32.407Z,11.60
2023-05-20T12:29:00.142Z,10.40
2023-05-20T12:31:27.953Z,10.10
2023-05-20T12:33:55.598Z,10.20
2023-05-20T12:36:23.286Z,10.20
2023-05-20T12:38:52.147Z,10.60
2023-05-20T12:41:19.835Z,8.70
2023-05-20T12:43:47.501Z,10.60
2023-05-20T12:46:15.152Z,10.20
2023-05-20T12:48:42.904Z,9.30
2023-05-20T12:51:10.576Z,10.80
2023-05-20T12:53:38.237Z,9.30
2023-05-20T12:56:07.916Z,9.70
2023-05-20T12:58:35.926Z,10.00
2023-05-20T13:01:03.604Z,10.20
2023-05-20T13:03:31.312Z,8.50
2023-05-20T13:05:59.014Z,9.80
2023-05-20T13:08:28.697Z,10.10
2023-05-20T13:10:56.579Z,9.00
2023-05-20T13:13:24.486Z,9.00
2023-05-20T13:15:52.133Z,10.70
2023-05-20T13:18:19.825Z,9.40
2023-05-20T13:20:47.443Z,8.90
2023-05-20T13:23:15.137Z,8.90
2023-05-20T13:25:42.809Z,9.10
2023-05-20T13:28:10.551Z,9.00
2023-05-20T13:30:38.564Z,8.50
2023-05-20T13:33:06.620Z,7.90
2023-05-20T13:35:34.284Z,8.50
2023-05-20T13:38:01.896Z,8.60
2023-05-20T13:40:32.429Z,9.00
2023-05-20T13:43:03.094Z,8.80
2023-05-20T13:45:30.702Z,9.60
2023-05-20T13:47:58.363Z,8.20
2023-05-20T13:50:26.801Z,9.10
2023-05-20T13:52:54.466Z,8.20
2023-05-20T13:55:24.049Z,7.70
2023-05-20T13:57:52.590Z,7.50
2023-05-20T14:00:20.786Z,7.80
2023-05-20T14:02:48.533Z,7.90
2023-05-20T14:07:44.000Z,7.70
2023-05-20T14:10:11.714Z,7.30
2023-05-20T14:12:39.430Z,7.20
2023-05-20T14:15:07.685Z,7.60
2023-05-20T14:17:35.348Z,7.00
2023-05-20T14:20:03.074Z,7.30
2023-05-20T14:22:30.688Z,7.60
2023-05-20T14:24:58.469Z,7.80
2023-05-20T14:27:26.313Z,7.30
2023-05-20T14:29:53.960Z,7.50
2023-05-20T14:32:21.763Z,7.40
2023-05-20T14:34:49.584Z,7.10
2023-05-20T14:37:17.231Z,7.80
2023-05-20T14:39:44.943Z,6.80
2023-05-20T14:42:12.574Z,6.80
2023-05-20T14:44:40.195Z,7.70
2023-05-20T14:47:08.048Z,7.40
2023-05-20T14:49:39.308Z,8.20
2023-05-20T14:52:06.922Z,6.80
2023-05-20T14:54:34.641Z,7.10
2023-05-20T14:57:02.268Z,6.70
2023-05-20T14:59:29.883Z,7.10
2023-05-20T15:01:57.676Z,7.00
2023-05-20T15:04:25.674Z,7.00
2023-05-20T15:06:53.540Z,7.20
2023-05-20T15:09:21.154Z,8.70
2023-05-20T15:11:48.814Z,7.50
2023-05-20T15:14:16.499Z,7.00
2023-05-20T15:16:44.202Z,7.60
2023-05-20T15:19:15.045Z,8.50
2023-05-20T15:21:42.847Z,7.30
2023-05-20T15:24:10.474Z,7.10
2023-05-20T15:26:38.977Z,8.20
2023-05-20T15:29:06.643Z,8.30
2023-05-20T15:31:34.306Z,7.60
2023-05-20T15:34:02.593Z,7.30
2023-05-20T15:36:31.235Z,9.20
2023-05-20T15:38:58.854Z,7.20
2023-05-20T15:41:26.666Z,8.00
2023-05-20T15:43:54.292Z,7.20
2023-05-20T15:46:21.938Z,7.80
2023-05-20T15:48:49.640Z,8.00
2023-05-20T15:51:17.566Z,7.50
2023-05-20T15:53:45.177Z,10.00
2023-05-20T15:56:13.032Z,9.30
2023-05-20T15:58:43.650Z,8.90
2023-05-20T16:01:11.299Z,8.60
2023-05-20T16:03:38.996Z,8.00
2023-05-20T16:06:06.754Z,9.10
2023-05-20T16:08:34.368Z,8.90
2023-05-20T16:11:01.961Z,8.70
2023-05-20T16:13:29.593Z,7.50
2023-05-20T16:15:57.494Z,9.20
2023-05-20T16:18:26.688Z,9.00
2023-05-20T16:20:54.432Z,9.80
2023-05-20T16:23:23.353Z,8.80
2023-05-20T16:25:51.143Z,9.10
2023-05-20T16:28:18.762Z,8.90
2023-05-20T16:30:46.349Z,10.70
2023-05-20T16:33:13.956Z,9.70
2023-05-20T16:35:41.520Z,9.80
2023-05-20T16:38:09.185Z,10.60
2023-05-20T16:40:36.765Z,10.30
2023-05-20T16:43:04.402Z,12.00
2023-05-20T16:45:32.090Z,12.60
2023-05-20T16:47:59.741Z,10.50
2023-05-20T16:50:27.513Z,10.10
2023-05-20T16:52:55.061Z,11.60
2023-05-20T16:55:22.898Z,8.80
2023-05-20T16:57:50.613Z,11.00
2023-05-20T17:00:18.310Z,10.30
2023-05-20T17:02:45.963Z,8.80
2023-05-20T17:05:15.465Z,12.00
2023-05-20T17:07:44.357Z,11.80
2023-05-20T17:10:11.982Z,9.80
2023-05-20T17:12:39.776Z,9.80
2023-05-20T17:15:08.284Z,9.30
2023-05-20T17:17:35.940Z,11.40
2023-05-20T17:20:03.981Z,11.20
2023-05-20T17:22:31.595Z,10.60
2023-05-20T17:24:59.226Z,12.70
2023-05-20T17:27:27.105Z,11.60
2023-05-20T17:29:54.708Z,13.00
2023-05-20T17:32:22.278Z,11.80
2023-05-20T17:34:49.868Z,12.30
2023-05-20T17:37:17.426Z,13.60
2023-05-20T17:39:45.080Z,14.20
2023-05-20T17:42:12.694Z,13.30
2023-05-20T17:44:40.325Z,13.00
2023-05-20T17:47:07.937Z,13.60
2023-05-20T17:49:35.516Z,14.20
2023-05-20T17:52:03.190Z,16.50
2023-05-20T17:54:30.879Z,15.20
2023-05-20T17:56:58.524Z,14.50
2023-05-20T17:59:26.143Z,13.50
2023-05-20T18:01:53.779Z,13.20
2023-05-20T18:04:21.472Z,16.50
2023-05-20T18:06:49.183Z,14.90
2023-05-20T18:09:16.774Z,15.80
2023-05-20T18:11:44.760Z,13.80
2023-05-20T18:14:12.389Z,13.60
2023-05-20T18:16:39.976Z,14.00
2023-05-20T18:19:07.803Z,14.60
2023-05-20T18:21:35.485Z,14.00
2023-05-20T18:24:03.172Z,15.10
2023-05-20T18:26:30.834Z,13.10
2023-05-20T18:28:58.477Z,13.60
2023-05-20T18:31:26.136Z,14.90
2023-05-20T18:33:53.767Z,15.10
2023-05-20T18:36:21.491Z,13.00
2023-05-20T18:38:49.111Z,14.10
2023-05-20T18:41:16.744Z,16.10
2023-05-20T18:43:44.344Z,16.30
2023-05-20T18:46:12.329Z,12.90
2023-05-20T18:48:39.978Z,14.40
2023-05-20T18:51:07.646Z,13.90
2023-05-20T18:53:35.270Z,14.00
2023-05-20T18:56:03.044Z,11.70
2023-05-20T18:58:30.664Z,12.00
2023-05-20T19:00:58.276Z,12.80
2023-05-20T19:03:25.905Z,14.70
2023-05-20T19:05:54.036Z,14.60
2023-05-20T19:08:21.682Z,13.50
2023-05-20T19:10:49.372Z,18.30
2023-05-20T19:13:16.927Z,17.70
2023-05-20T19:15:44.845Z,14.90
2023-05-20T19:18:12.457Z,12.50
2023-05-20T19:20:40.060Z,14.60
2023-05-20T19:23:07.691Z,13.00
2023-05-20T19:25:35.572Z,13.70
2023-05-20T19:28:03.438Z,11.90
2023-05-20T19:30:31.354Z,13.10
2023-05-20T19:33:04.253Z,12.10
2023-05-20T19:35:33.467Z,11.20
2023-05-20T19:38:01.166Z,11.60
2023-05-20T19:40:30.363Z,9.80
2023-05-20T19:42:59.097Z,10.80
2023-05-20T19:45:26.703Z,11.50
2023-05-20T19:47:54.442Z,12.10
2023-05-20T19:50:22.343Z,10.80
2023-05-20T19:52:51.773Z,12.60
2023-05-20T19:55:19.504Z,10.80
2023-05-20T19:57:47.131Z,11.30
2023-05-20T20:00:14.953Z,13.70
2023-05-20T20:02:42.677Z,11.10
2023-05-20T20:05:10.475Z,11.30
2023-05-20T20:07:38.183Z,12.00
2023-05-20T20:10:08.643Z,13.20
2023-05-20T20:12:36.469Z,11.40
2023-05-20T20:15:05.628Z,10.60
2023-05-20T20:17:33.225Z,11.00
2023-05-20T20:20:01.038Z,11.00
2023-05-20T20:22:28.962Z,14.30
2023-05-20T20:24:56.578Z,14.00
2023-05-20T20:27:24.536Z,12.50
2023-05-20T20:29:52.190Z,12.10
2023-05-20T20:32:19.936Z,12.00
2023-05-20T20:34:47.606Z,11.30
2023-05-20T20:37:15.509Z,14.00
2023-05-20T20:39:43.940Z,11.20
2023-05-20T20:42:11.875Z,12.00
2023-05-20T20:44:39.467Z,13.10
2023-05-20T20:47:07.141Z,13.30
2023-05-20T20:49:34.834Z,11.80
2023-05-20T20:52:02.588Z,12.80
2023-05-20T20:54:30.183Z,13.00
2023-05-20T20:56:57.805Z,11.40
2023-05-20T20:59:26.037Z,12.80
2023-05-20T21:01:57.236Z,12.80
2023-05-20T21:04:25.058Z,13.30
2023-05-20T21:06:54.000Z,11.60
2023-05-20T21:09:21.650Z,12.90
2023-05-20T21:11:49.387Z,12.20
2023-05-20T21:14:17.115Z,12.70
2023-05-20T21:16:44.853Z,13.00
2023-05-20T21:19:12.541Z,12.20
2023-05-20T21:21:40.141Z,13.10
2023-05-20T21:24:07.755Z,13.60
2023-05-20T21:26:35.379Z,14.50
2023-05-20T21:29:03.008Z,15.20
2023-05-20T21:31:30.640Z,14.00
2023-05-20T21:33:58.330Z,13.90
2023-05-20T21:36:25.979Z,13.30
2023-05-20T21:38:53.597Z,13.60
2023-05-20T21:41:21.272Z,15.60
2023-05-20T21:43:51.505Z,14.30
2023-05-20T21:46:19.178Z,12.90
2023-05-20T21:48:46.842Z,13.40
2023-05-20T21:51:15.966Z,13.20
2023-05-20T21:53:43.621Z,15.70
2023-05-20T21:56:11.303Z,13.60
2023-05-20T21:58:38.916Z,13.70
2023-05-20T22:01:06.847Z,17.80
2023-05-20T22:03:34.477Z,16.70
2023-05-20T22:06:02.893Z,17.50
2023-05-20T22:08:30.995Z,16.80
2023-05-20T22:10:58.557Z,13.00
2023-05-20T22:13:26.769Z,15.70
2023-05-20T22:15:54.394Z,16.10
2023-05-20T22:20:51.686Z,15.30
2023-05-20T22:23:22.182Z,15.20
2023-05-20T22:25:49.789Z,14.60
2023-05-20T22:28:17.631Z,16.60
2023-05-20T22:30:45.227Z,16.40
2023-05-20T22:33:12.866Z,16.90
2023-05-20T22:35:40.491Z,16.60
2023-05-20T22:38:08.095Z,18.70
2023-05-20T22:40:35.740Z,15.30
2023-05-20T22:43:03.323Z,16.70
2023-05-20T22:45:31.010Z,19.10
2023-05-20T22:47:58.755Z,18.20
2023-05-20T22:50:26.485Z,17.30
2023-05-20T22:52:54.115Z,16.50
2023-05-20T22:55:21.778Z,17.10
2023-05-20T22:57:49.346Z,17.70
2023-05-20T23:00:17.301Z,18.20
2023-05-20T23:02:44.925Z,15.90
2023-05-20T23:05:12.563Z,16.90
2023-05-20T23:07:40.135Z,20.50
2023-05-20T23:10:08.190Z,16.40
2023-05-20T23:12:35.763Z,18.60
2023-05-20T23:15:03.507Z,18.10
2023-05-20T23:17:31.099Z,17.30
2023-05-20T23:19:58.716Z,19.40
2023-05-20T23:22:26.296Z,16.90
2023-05-20T23:24:53.927Z,20.80
2023-05-20T23:27:21.532Z,17.80
2023-05-20T23:29:49.138Z,15.70
2023-05-20T23:32:16.707Z,17.80
2023-05-20T23:34:44.294Z,16.30
2023-05-20T23:37:12.537Z,20.30
2023-05-20T23:39:40.094Z,15.90
2023-05-20T23:42:07.674Z,15.80
2023-05-20T23:44:35.278Z,17.00
2023-05-20T23:47:02.952Z,15.20
2023-05-20T23:49:30.533Z,18.10
2023-05-20T23:51:58.119Z,16.00
2023-05-20T23:54:25.726Z,14.30
2023-05-20T23:56:53.332Z,14.90
2023-05-20T23:59:20.970Z,17.50
